createdAt,value
2023-04-15T00:00:29.144Z,21.90
2023-04-15T00:02:00.980Z,26.30
2023-04-15T00:03:34.466Z,23.40
2023-04-15T00:05:07.279Z,23.70
2023-04-15T00:06:39.825Z,24.20
2023-04-15T00:08:12.718Z,23.70
2023-04-15T00:09:44.768Z,22.80
2023-04-15T00:11:18.287Z,19.80
2023-04-15T00:12:50.051Z,21.30
2023-04-15T00:14:22.060Z,20.40
2023-04-15T00:15:53.751Z,23.00
2023-04-15T00:17:25.831Z,19.80
2023-04-15T00:18:57.917Z,21.30
2023-04-15T00:20:30.049Z,17.40
2023-04-15T00:22:01.970Z,19.30
2023-04-15T00:23:33.623Z,18.10
2023-04-15T00:25:05.626Z,21.40
2023-04-15T00:26:37.518Z,17.90
2023-04-15T00:28:09.375Z,18.30
2023-04-15T00:29:41.230Z,17.40
2023-04-15T00:31:13.075Z,21.00
2023-04-15T00:32:45.624Z,18.60
2023-04-15T00:34:17.388Z,16.50
2023-04-15T00:35:49.056Z,19.30
2023-04-15T00:37:21.052Z,16.20
2023-04-15T00:38:52.756Z,17.70
2023-04-15T00:40:26.252Z,16.10
2023-04-15T00:41:58.533Z,18.90
2023-04-15T00:43:30.252Z,19.90
2023-04-15T00:45:02.463Z,17.20
2023-04-15T00:46:37.776Z,17.10
2023-04-15T00:48:11.406Z,16.10
2023-04-15T00:49:43.105Z,17.00
2023-04-15T00:51:37.021Z,17.10
2023-04-15T00:53:08.666Z,17.30
2023-04-15T00:54:40.658Z,15.10
2023-04-15T00:56:12.781Z,14.60
2023-04-15T00:57:44.607Z,15.20
2023-04-15T00:59:18.711Z,17.20
2023-04-15T01:00:54.387Z,17.00
2023-04-15T01:02:27.155Z,17.20
2023-04-15T01:03:59.195Z,17.10
2023-04-15T01:05:32.429Z,16.70
2023-04-15T01:07:04.347Z,16.10
2023-04-15T01:08:36.329Z,16.30
2023-04-15T01:10:09.131Z,18.10
2023-04-15T01:11:41.027Z,16.10
2023-04-15T01:13:13.349Z,18.00
2023-04-15T01:14:45.367Z,16.00
2023-04-15T01:16:17.578Z,17.10
2023-04-15T01:17:50.095Z,15.80
2023-04-15T01:19:22.054Z,16.00
2023-04-15T01:20:54.186Z,16.10
2023-04-15T01:22:29.145Z,16.70
2023-04-15T01:24:01.566Z,16.50
2023-04-15T01:25:34.920Z,16.90
2023-04-15T01:27:06.769Z,17.70
2023-04-15T01:28:38.977Z,15.30
2023-04-15T01:30:11.587Z,15.80
2023-04-15T01:31:52.127Z,17.00
2023-04-15T01:33:24.090Z,16.40
2023-04-15T01:34:55.726Z,16.60
2023-04-15T01:36:29.877Z,17.30
2023-04-15T01:38:09.906Z,16.20
2023-04-15T01:39:43.086Z,14.10
2023-04-15T01:41:15.084Z,19.10
2023-04-15T01:42:47.299Z,18.40
2023-04-15T01:44:21.029Z,16.50
2023-04-15T01:45:52.957Z,17.70
2023-04-15T01:47:24.648Z,16.00
2023-04-15T01:48:56.608Z,16.40
2023-04-15T01:50:29.924Z,17.80
2023-04-15T01:52:01.599Z,17.20
2023-04-15T01:53:34.231Z,16.10
2023-04-15T01:55:09.543Z,17.60
2023-04-15T01:56:41.414Z,15.30
2023-04-15T01:58:15.129Z,14.40
2023-04-15T01:59:47.002Z,16.00
2023-04-15T02:01:20.770Z,16.50
2023-04-15T02:02:53.125Z,14.00
2023-04-15T02:04:25.056Z,15.20
2023-04-15T02:05:56.822Z,17.00
2023-04-15T02:07:32.205Z,15.90
2023-04-15T02:09:04.310Z,17.80
2023-04-15T02:10:36.017Z,14.90
2023-04-15T02:12:07.712Z,17.60
2023-04-15T02:13:39.500Z,16.30
2023-04-15T02:15:11.474Z,17.00
2023-04-15T02:16:43.207Z,18.30
2023-04-15T02:18:16.829Z,15.40
2023-04-15T02:19:49.529Z,17.00
2023-04-15T02:21:21.531Z,15.60
2023-04-15T02:22:53.244Z,15.20
2023-04-15T02:24:24.882Z,15.70
2023-04-15T02:25:56.527Z,16.70
2023-04-15T02:27:28.915Z,16.30
2023-04-15T02:29:00.904Z,17.50
2023-04-15T02:30:34.488Z,16.50
2023-04-15T02:32:08.309Z,16.10
2023-04-15T02:33:40.225Z,14.60
2023-04-15T02:35:12.539Z,14.80
2023-04-15T02:36:44.231Z,17.10
2023-04-15T02:38:17.914Z,14.70
2023-04-15T02:39:49.989Z,16.50
2023-04-15T02:41:25.930Z,16.10
2023-04-15T02:42:57.544Z,16.40
2023-04-15T02:44:29.581Z,15.50
2023-04-15T02:46:03.550Z,16.40
2023-04-15T02:47:36.196Z,14.40
2023-04-15T02:49:10.996Z,14.80
2023-04-15T02:50:42.802Z,15.80
2023-04-15T02:52:15.194Z,18.20
2023-04-15T02:53:50.509Z,15.60
2023-04-15T02:55:22.640Z,13.50
2023-04-15T02:56:56.258Z,15.60
2023-04-15T02:58:28.005Z,16.20
2023-04-15T02:59:59.733Z,16.10
2023-04-15T03:01:31.574Z,15.60
2023-04-15T03:03:06.105Z,15.30
2023-04-15T03:04:37.959Z,16.30
2023-04-15T03:06:09.760Z,17.50
2023-04-15T03:07:41.568Z,14.40
2023-04-15T03:09:13.236Z,15.50
2023-04-15T03:10:44.874Z,13.90
2023-04-15T03:12:16.528Z,14.80
2023-04-15T03:13:48.548Z,15.50
2023-04-15T03:15:40.088Z,16.30
2023-04-15T03:17:11.822Z,15.90
2023-04-15T03:18:43.757Z,15.30
2023-04-15T03:20:15.923Z,15.60
2023-04-15T03:21:47.700Z,16.70
2023-04-15T03:23:19.857Z,17.90
2023-04-15T03:24:51.574Z,17.30
2023-04-15T03:26:31.878Z,17.90
2023-04-15T03:28:06.415Z,14.60
2023-04-15T03:29:38.105Z,15.70
2023-04-15T03:31:10.131Z,18.00
2023-04-15T03:32:41.926Z,16.70
2023-04-15T03:34:13.760Z,18.40
2023-04-15T03:35:46.064Z,17.70
2023-04-15T03:37:17.749Z,17.10
2023-04-15T03:38:50.145Z,17.50
2023-04-15T03:40:22.381Z,18.30
2023-04-15T03:41:54.049Z,20.00
2023-04-15T03:43:25.949Z,17.70
2023-04-15T03:44:57.757Z,19.00
2023-04-15T03:46:29.541Z,17.50
2023-04-15T03:48:11.473Z,20.30
2023-04-15T03:49:48.120Z,20.50
2023-04-15T03:51:19.898Z,18.30
2023-04-15T03:52:51.903Z,19.70
2023-04-15T03:54:23.603Z,19.70
2023-04-15T03:55:55.372Z,18.90
2023-04-15T03:57:27.308Z,18.30
2023-04-15T03:58:59.172Z,18.80
2023-04-15T04:00:31.488Z,21.10
2023-04-15T04:02:03.283Z,18.50
2023-04-15T04:03:35.167Z,19.20
2023-04-15T04:05:07.378Z,18.00
2023-04-15T04:06:39.489Z,20.70
2023-04-15T04:08:13.755Z,20.40
2023-04-15T04:09:47.289Z,20.10
2023-04-15T04:11:19.256Z,21.00
2023-04-15T04:12:51.030Z,19.50
2023-04-15T04:14:29.174Z,21.30
2023-04-15T04:16:00.954Z,21.30
2023-04-15T04:17:33.012Z,21.70
2023-04-15T04:19:04.757Z,19.50
2023-04-15T04:20:36.613Z,20.50
2023-04-15T04:22:08.293Z,22.60
2023-04-15T04:23:40.084Z,20.20
2023-04-15T04:25:11.953Z,21.90
2023-04-15T04:26:43.639Z,20.70
2023-04-15T04:28:15.574Z,22.00
2023-04-15T04:29:47.953Z,19.70
2023-04-15T04:31:19.832Z,20.90
2023-04-15T04:32:51.945Z,21.20
2023-04-15T04:34:23.680Z,19.70
2023-04-15T04:35:55.553Z,21.90
2023-04-15T04:37:27.227Z,20.60
2023-04-15T04:38:59.155Z,21.10
2023-04-15T04:40:31.348Z,22.10
2023-04-15T04:42:03.111Z,21.50
2023-04-15T04:43:34.778Z,24.90
2023-04-15T04:45:07.479Z,20.50
2023-04-15T04:46:39.491Z,22.80
2023-04-15T04:48:11.577Z,21.60
2023-04-15T04:49:43.225Z,22.90
2023-04-15T04:51:15.151Z,19.80
2023-04-15T04:52:46.832Z,21.90
2023-04-15T04:54:18.530Z,23.10
2023-04-15T04:55:50.330Z,18.30
2023-04-15T04:57:21.962Z,21.80
2023-04-15T04:58:53.626Z,20.20
2023-04-15T05:00:25.497Z,20.60
2023-04-15T05:01:57.391Z,21.00
2023-04-15T05:03:29.425Z,23.50
2023-04-15T05:05:01.459Z,22.70
2023-04-15T05:06:33.876Z,20.80
2023-04-15T05:08:05.981Z,20.80
2023-04-15T05:09:37.872Z,24.30
2023-04-15T05:11:09.664Z,22.20
2023-04-15T05:12:41.449Z,19.60
2023-04-15T05:14:13.147Z,22.80
2023-04-15T05:15:45.444Z,19.90
2023-04-15T05:17:17.101Z,22.30
2023-04-15T05:18:48.721Z,22.50
2023-04-15T05:20:20.515Z,23.00
2023-04-15T05:21:52.424Z,23.80
2023-04-15T05:23:24.086Z,22.30
2023-04-15T05:24:56.013Z,22.10
2023-04-15T05:26:28.229Z,20.10
2023-04-15T05:28:00.550Z,22.70
2023-04-15T05:29:32.346Z,20.70
2023-04-15T05:31:04.257Z,22.70
2023-04-15T05:32:36.420Z,23.30
2023-04-15T05:34:08.701Z,23.30
2023-04-15T05:35:40.705Z,22.70
2023-04-15T05:37:12.995Z,21.40
2023-04-15T05:38:44.731Z,22.10
2023-04-15T05:40:16.515Z,21.40
2023-04-15T05:41:48.223Z,24.20
2023-04-15T05:43:19.995Z,22.30
2023-04-15T05:44:52.038Z,23.20
2023-04-15T05:46:23.865Z,22.20
2023-04-15T05:47:55.787Z,24.40
2023-04-15T05:49:27.750Z,19.90
2023-04-15T05:50:59.517Z,21.50
2023-04-15T05:52:32.019Z,19.60
2023-04-15T05:54:03.821Z,21.30
2023-04-15T05:55:35.681Z,20.40
2023-04-15T05:57:07.893Z,21.40
2023-04-15T05:58:39.586Z,22.30
2023-04-15T06:00:12.007Z,22.90
2023-04-15T06:01:44.104Z,21.00
2023-04-15T06:03:16.306Z,23.10
2023-04-15T06:04:48.719Z,19.70
2023-04-15T06:06:20.987Z,20.80
2023-04-15T06:07:52.747Z,20.20
2023-04-15T06:09:24.429Z,22.00
2023-04-15T06:10:56.433Z,19.30
2023-04-15T06:12:28.760Z,19.70
2023-04-15T06:14:00.540Z,19.80
2023-04-15T06:15:32.426Z,18.90
2023-04-15T06:17:04.141Z,21.20
2023-04-15T06:18:35.797Z,21.00
2023-04-15T06:20:08.535Z,23.60
2023-04-15T06:21:40.698Z,18.80
2023-04-15T06:23:12.380Z,20.70
2023-04-15T06:24:44.182Z,23.10
2023-04-15T06:26:15.894Z,19.10
2023-04-15T06:27:48.318Z,21.30
2023-04-15T06:29:20.184Z,19.70
2023-04-15T06:30:53.860Z,20.20
2023-04-15T06:32:26.105Z,20.00
2023-04-15T06:33:57.843Z,19.10
2023-04-15T06:35:29.540Z,20.90
2023-04-15T06:37:01.594Z,20.50
2023-04-15T06:38:33.465Z,19.50
2023-04-15T06:40:06.338Z,18.10
2023-04-15T06:41:38.146Z,21.80
2023-04-15T06:43:10.278Z,20.20
2023-04-15T06:44:42.677Z,19.60
2023-04-15T06:46:14.825Z,18.80
2023-04-15T06:47:47.102Z,15.70
2023-04-15T06:49:18.946Z,17.90
2023-04-15T06:50:50.856Z,17.80
2023-04-15T06:52:22.544Z,16.60
2023-04-15T06:53:54.533Z,19.60
2023-04-15T06:55:26.536Z,16.70
2023-04-15T06:56:58.301Z,20.60
2023-04-15T06:58:30.036Z,16.00
2023-04-15T07:00:02.558Z,18.10
2023-04-15T07:01:34.528Z,17.00
2023-04-15T07:03:06.411Z,16.60
2023-04-15T07:04:38.149Z,14.70
2023-04-15T07:06:10.167Z,18.60
2023-04-15T07:07:42.281Z,17.70
2023-04-15T07:09:14.413Z,19.20
2023-04-15T07:10:47.400Z,16.30
2023-04-15T07:12:19.635Z,16.60
2023-04-15T07:13:51.313Z,17.00
2023-04-15T07:15:23.549Z,15.70
2023-04-15T07:16:55.732Z,13.30
2023-04-15T07:18:27.416Z,18.00
2023-04-15T07:19:59.189Z,17.00
2023-04-15T07:21:31.216Z,15.90
2023-04-15T07:23:03.609Z,18.50
2023-04-15T07:24:35.563Z,17.20
2023-04-15T07:26:09.036Z,16.30
2023-04-15T07:27:40.941Z,17.50
2023-04-15T07:29:12.659Z,15.50
2023-04-15T07:30:44.466Z,14.70
2023-04-15T07:32:16.351Z,14.60
2023-04-15T07:33:48.071Z,14.40
2023-04-15T07:35:21.345Z,15.70
2023-04-15T07:36:53.139Z,14.40
2023-04-15T07:38:25.154Z,14.70
2023-04-15T07:39:57.602Z,15.20
2023-04-15T07:41:30.936Z,13.10
2023-04-15T07:43:03.474Z,14.70
2023-04-15T07:44:35.691Z,13.50
2023-04-15T07:46:07.468Z,15.10
2023-04-15T07:47:40.547Z,14.50
2023-04-15T07:49:13.511Z,13.70
2023-04-15T07:50:45.433Z,13.50
2023-04-15T07:52:17.488Z,13.00
2023-04-15T07:53:50.501Z,13.40
2023-04-15T07:55:23.371Z,11.00
2023-04-15T07:56:56.091Z,13.40
2023-04-15T07:58:27.880Z,13.60
2023-04-15T08:00:00.803Z,13.00
2023-04-15T08:01:33.046Z,10.40
2023-04-15T08:03:04.892Z,11.40
2023-04-15T08:04:38.121Z,11.90
2023-04-15T08:06:10.230Z,11.90
2023-04-15T08:07:42.015Z,11.10
2023-04-15T08:09:13.761Z,10.40
2023-04-15T08:10:45.587Z,11.60
2023-04-15T08:12:17.413Z,12.10
2023-04-15T08:13:49.204Z,10.30
2023-04-15T08:15:21.541Z,11.20
2023-04-15T08:16:53.420Z,11.30
2023-04-15T08:18:25.209Z,11.00
2023-04-15T08:19:57.285Z,10.50
2023-04-15T08:21:30.925Z,10.30
2023-04-15T08:23:03.281Z,11.20
2023-04-15T08:24:35.063Z,11.20
2023-04-15T08:26:08.715Z,10.20
2023-04-15T08:27:40.488Z,9.90
2023-04-15T08:29:12.276Z,9.70
2023-04-15T08:30:44.027Z,9.50
2023-04-15T08:32:16.058Z,9.40
2023-04-15T08:33:47.979Z,9.30
2023-04-15T08:35:19.750Z,8.90
2023-04-15T08:36:51.529Z,9.80
2023-04-15T08:38:23.877Z,11.90
2023-04-15T08:39:55.562Z,10.20
2023-04-15T08:41:42.067Z,9.50
2023-04-15T08:43:28.623Z,10.20
2023-04-15T08:45:03.564Z,10.90
2023-04-15T08:46:35.308Z,9.30
2023-04-15T08:48:10.753Z,10.30
2023-04-15T08:49:44.280Z,8.50
2023-04-15T08:51:18.437Z,7.20
2023-04-15T08:52:55.715Z,6.80
2023-04-15T08:54:28.578Z,6.80
2023-04-15T08:56:07.540Z,7.30
2023-04-15T08:57:40.002Z,8.60
2023-04-15T08:59:12.495Z,7.50
2023-04-15T09:00:44.475Z,8.00
2023-04-15T09:02:16.595Z,8.10
2023-04-15T09:03:50.518Z,7.40
2023-04-15T09:05:23.115Z,7.50
2023-04-15T09:06:54.895Z,7.50
2023-04-15T09:08:26.740Z,7.00
2023-04-15T09:09:58.573Z,7.10
2023-04-15T09:11:31.470Z,8.80
2023-04-15T09:13:04.526Z,9.30
2023-04-15T09:14:36.416Z,6.70
2023-04-15T09:16:08.576Z,6.80
2023-04-15T09:17:45.940Z,7.00
2023-04-15T09:19:23.126Z,6.70
2023-04-15T09:20:55.306Z,7.60
2023-04-15T09:22:33.131Z,8.30
2023-04-15T09:24:05.800Z,7.60
2023-04-15T09:25:38.936Z,7.30
2023-04-15T09:27:11.402Z,8.00
2023-04-15T09:28:43.469Z,8.50
2023-04-15T09:30:16.264Z,8.50
2023-04-15T09:31:56.997Z,7.90
2023-04-15T09:33:30.132Z,7.90
2023-04-15T09:35:13.093Z,7.90
2023-04-15T09:39:56.203Z,8.30
2023-04-15T09:41:28.717Z,7.60
2023-04-15T09:43:02.012Z,8.70
2023-04-15T09:44:34.171Z,7.90
2023-04-15T09:46:06.599Z,7.60
2023-04-15T09:47:38.422Z,9.70
2023-04-15T09:49:12.316Z,8.30
2023-04-15T09:50:45.011Z,8.40
2023-04-15T09:52:17.034Z,8.90
2023-04-15T09:53:56.653Z,9.00
2023-04-15T09:55:33.486Z,8.80
2023-04-15T09:57:07.573Z,7.60
2023-04-15T09:58:39.607Z,7.60
2023-04-15T10:00:12.211Z,7.30
2023-04-15T10:01:45.728Z,8.00
2023-04-15T10:03:22.738Z,8.00
2023-04-15T10:04:54.798Z,8.70
2023-04-15T10:06:27.663Z,7.90
2023-04-15T10:08:01.190Z,8.70
2023-04-15T10:09:34.760Z,9.50
2023-04-15T10:11:07.911Z,8.50
2023-04-15T10:12:42.609Z,6.60
2023-04-15T10:14:16.147Z,7.40
2023-04-15T10:15:58.662Z,7.60
2023-04-15T10:17:35.545Z,6.80
2023-04-15T10:19:09.630Z,9.10
2023-04-15T10:20:42.181Z,6.80
2023-04-15T10:22:15.589Z,7.90
2023-04-15T10:23:47.875Z,8.30
2023-04-15T10:25:20.653Z,7.80
2023-04-15T10:26:53.155Z,8.20
2023-04-15T10:28:26.551Z,8.60
2023-04-15T10:30:03.049Z,9.20
2023-04-15T10:31:38.363Z,8.70
2023-04-15T10:33:11.432Z,10.80
2023-04-15T10:34:45.700Z,9.40
2023-04-15T10:36:20.400Z,8.00
2023-04-15T10:37:52.214Z,8.20
2023-04-15T10:39:42.784Z,8.30
2023-04-15T10:41:19.968Z,8.80
2023-04-15T10:42:54.899Z,8.40
2023-04-15T10:44:26.791Z,8.10
2023-04-15T10:45:58.676Z,8.10
2023-04-15T10:47:32.644Z,8.80
2023-04-15T10:49:17.981Z,8.70
2023-04-15T10:51:03.670Z,8.70
2023-04-15T10:52:35.659Z,9.30
2023-04-15T10:54:30.208Z,9.60
2023-04-15T10:56:05.449Z,8.20
2023-04-15T10:57:42.155Z,9.60
2023-04-15T10:59:16.411Z,8.90
2023-04-15T11:00:53.933Z,10.50
2023-04-15T11:02:47.053Z,9.30
2023-04-15T11:04:57.586Z,7.70
2023-04-15T11:06:45.581Z,8.80
2023-04-15T11:08:18.220Z,9.00
2023-04-15T11:09:49.883Z,10.10
2023-04-15T11:11:21.950Z,9.40
2023-04-15T11:12:58.224Z,9.80
2023-04-15T11:14:30.073Z,9.20
2023-04-15T11:16:03.396Z,10.00
2023-04-15T11:17:35.195Z,9.20
2023-04-15T11:19:07.106Z,10.00
2023-04-15T11:20:44.979Z,8.40
2023-04-15T11:22:16.948Z,10.40
2023-04-15T11:23:48.643Z,9.80
2023-04-15T11:25:28.549Z,8.10
2023-04-15T11:27:02.383Z,8.60
2023-04-15T11:28:34.200Z,8.70
2023-04-15T11:30:27.746Z,9.40
2023-04-15T11:32:07.563Z,8.70
2023-04-15T11:33:59.386Z,8.50
2023-04-15T11:35:32.447Z,8.60
2023-04-15T11:37:06.342Z,8.10
2023-04-15T11:38:42.389Z,9.10
2023-04-15T11:40:15.665Z,9.00
2023-04-15T11:41:47.566Z,7.90
2023-04-15T11:43:22.811Z,8.60
2023-04-15T11:45:12.651Z,9.30
2023-04-15T11:46:45.674Z,8.50
2023-04-15T11:48:18.827Z,8.50
2023-04-15T11:49:50.656Z,9.30
2023-04-15T11:51:22.751Z,9.50
2023-04-15T11:53:01.373Z,8.30
2023-04-15T11:54:33.236Z,8.20
2023-04-15T11:56:06.398Z,8.70
2023-04-15T11:57:38.043Z,9.10
2023-04-15T11:59:09.976Z,8.50
2023-04-15T12:00:45.633Z,8.30
2023-04-15T12:02:17.426Z,9.00
2023-04-15T12:03:50.461Z,9.70
2023-04-15T12:05:22.636Z,9.20
2023-04-15T12:06:54.412Z,9.10
2023-04-15T12:08:26.188Z,8.80
2023-04-15T12:09:58.410Z,8.10
2023-04-15T12:11:42.526Z,8.30
2023-04-15T12:13:15.311Z,8.40
2023-04-15T12:14:47.338Z,9.30
2023-04-15T12:16:22.891Z,8.20
2023-04-15T12:17:55.638Z,7.80
2023-04-15T12:19:39.263Z,8.00
2023-04-15T12:21:12.199Z,8.60
2023-04-15T12:22:44.114Z,8.00
2023-04-15T12:24:21.488Z,8.60
2023-04-15T12:25:53.441Z,9.60
2023-04-15T12:27:29.253Z,8.50
2023-04-15T12:29:08.880Z,7.20
2023-04-15T12:30:52.496Z,8.10
2023-04-15T12:32:24.359Z,8.80
2023-04-15T12:33:58.343Z,8.10
2023-04-15T12:35:30.263Z,7.30
2023-04-15T12:37:05.692Z,8.50
2023-04-15T12:38:37.431Z,9.30
2023-04-15T12:40:09.953Z,7.40
2023-04-15T12:41:41.967Z,8.10
2023-04-15T12:43:13.728Z,6.50
2023-04-15T12:44:46.039Z,6.60
2023-04-15T12:46:18.188Z,7.70
2023-04-15T12:47:49.992Z,7.70
2023-04-15T12:49:23.487Z,7.60
2023-04-15T12:50:55.271Z,6.40
2023-04-15T12:52:26.958Z,6.30
2023-04-15T12:53:58.853Z,7.20
2023-04-15T12:55:30.725Z,5.70
2023-04-15T12:57:05.555Z,6.90
2023-04-15T12:58:37.911Z,7.30
2023-04-15T13:00:10.557Z,5.00
2023-04-15T13:01:42.456Z,7.10
2023-04-15T13:03:14.315Z,6.90
2023-04-15T13:04:46.367Z,7.40
2023-04-15T13:06:18.106Z,6.40
2023-04-15T13:07:49.809Z,6.40
2023-04-15T13:09:21.787Z,6.60
2023-04-15T13:10:53.793Z,6.60
2023-04-15T13:12:25.578Z,7.90
2023-04-15T13:13:58.037Z,7.10
2023-04-15T13:15:29.983Z,6.80
2023-04-15T13:17:02.846Z,5.20
2023-04-15T13:18:34.877Z,5.80
2023-04-15T13:20:07.119Z,7.30
2023-04-15T13:21:38.889Z,6.10
2023-04-15T13:23:10.605Z,5.90
2023-04-15T13:24:42.372Z,5.70
2023-04-15T13:26:14.059Z,7.30
2023-04-15T13:27:46.666Z,6.10
2023-04-15T13:29:18.471Z,6.40
2023-04-15T13:30:50.433Z,7.10
2023-04-15T13:32:22.234Z,5.90
2023-04-15T13:33:54.136Z,5.90
2023-04-15T13:35:26.359Z,5.80
2023-04-15T13:36:58.328Z,7.00
2023-04-15T13:38:30.137Z,6.60
2023-04-15T13:40:01.850Z,7.30
2023-04-15T13:41:33.518Z,7.50
2023-04-15T13:43:05.620Z,5.20
2023-04-15T13:44:37.432Z,4.70
2023-04-15T13:46:09.155Z,6.10
2023-04-15T13:47:41.240Z,5.90
2023-04-15T13:49:13.107Z,6.10
2023-04-15T13:50:45.568Z,5.70
2023-04-15T13:52:17.311Z,5.60
2023-04-15T13:53:49.078Z,7.10
2023-04-15T13:55:23.006Z,5.70
2023-04-15T13:56:57.964Z,5.40
2023-04-15T13:58:29.841Z,7.50
2023-04-15T14:00:04.582Z,7.20
2023-04-15T14:01:38.190Z,7.00
2023-04-15T14:03:10.141Z,6.90
2023-04-15T14:04:42.472Z,6.50
2023-04-15T14:06:14.257Z,6.00
2023-04-15T14:07:45.946Z,7.00
2023-04-15T14:09:17.846Z,6.60
2023-04-15T14:10:49.633Z,6.90
2023-04-15T14:12:21.323Z,7.10
2023-04-15T14:13:53.118Z,7.60
2023-04-15T14:15:24.780Z,8.20
2023-04-15T14:16:57.421Z,8.60
2023-04-15T14:18:30.438Z,7.40
2023-04-15T14:20:02.433Z,6.40
2023-04-15T14:21:34.204Z,7.30
2023-04-15T14:23:05.931Z,8.10
2023-04-15T14:24:37.622Z,7.50
2023-04-15T14:26:09.365Z,6.20
2023-04-15T14:27:41.091Z,7.90
2023-04-15T14:29:12.879Z,7.30
2023-04-15T14:30:44.641Z,8.70
2023-04-15T14:32:17.331Z,8.50
2023-04-15T14:33:49.165Z,8.70
2023-04-15T14:35:20.867Z,8.60
2023-04-15T14:36:53.508Z,6.50
2023-04-15T14:38:25.365Z,9.00
2023-04-15T14:39:57.074Z,8.20
2023-04-15T14:41:28.757Z,9.20
2023-04-15T14:43:00.440Z,7.00
2023-04-15T14:46:04.260Z,7.50
2023-04-15T14:47:36.425Z,8.40
2023-04-15T14:49:08.638Z,7.50
2023-04-15T14:50:40.926Z,8.90
2023-04-15T14:52:12.737Z,8.20
2023-04-15T14:53:46.258Z,8.40
2023-04-15T14:55:17.949Z,8.30
2023-04-15T14:56:49.734Z,7.60
2023-04-15T14:58:21.478Z,8.20
2023-04-15T14:59:56.720Z,5.90
2023-04-15T15:01:30.030Z,7.40
2023-04-15T15:03:02.284Z,9.20
2023-04-15T15:04:36.110Z,8.20
2023-04-15T15:06:08.937Z,6.70
2023-04-15T15:07:41.065Z,7.90
2023-04-15T15:09:12.945Z,7.00
2023-04-15T15:10:48.384Z,7.60
2023-04-15T15:12:24.367Z,7.10
2023-04-15T15:13:57.048Z,7.40
2023-04-15T15:15:29.255Z,6.20
2023-04-15T15:17:01.216Z,8.90
2023-04-15T15:18:33.093Z,6.30
2023-04-15T15:20:05.784Z,6.80
2023-04-15T15:21:37.824Z,5.90
2023-04-15T15:23:09.590Z,6.40
2023-04-15T15:24:41.592Z,6.00
2023-04-15T15:26:13.376Z,7.20
2023-04-15T15:27:45.515Z,8.50
2023-04-15T15:29:17.292Z,7.60
2023-04-15T15:30:48.987Z,9.70
2023-04-15T15:32:20.679Z,7.00
2023-04-15T15:33:52.976Z,7.30
2023-04-15T15:35:26.149Z,9.60
2023-04-15T15:36:57.841Z,7.70
2023-04-15T15:38:29.739Z,7.40
2023-04-15T15:40:02.146Z,6.20
2023-04-15T15:41:34.416Z,10.00
2023-04-15T15:43:06.229Z,6.10
2023-04-15T15:44:38.560Z,7.40
2023-04-15T15:46:10.578Z,7.50
2023-04-15T15:47:42.942Z,7.10
2023-04-15T15:49:14.818Z,7.70
2023-04-15T15:50:46.604Z,7.30
2023-04-15T15:52:18.465Z,7.40
2023-04-15T15:53:50.394Z,7.10
2023-04-15T15:55:22.281Z,6.90
2023-04-15T15:56:53.922Z,6.70
2023-04-15T15:58:25.638Z,10.10
2023-04-15T16:00:10.578Z,5.90
2023-04-15T16:01:44.671Z,7.60
2023-04-15T16:03:16.694Z,7.00
2023-04-15T16:04:50.173Z,7.00
2023-04-15T16:06:22.038Z,7.60
2023-04-15T16:07:53.722Z,9.40
2023-04-15T16:09:25.547Z,7.30
2023-04-15T16:10:57.310Z,8.50
2023-04-15T16:12:29.089Z,7.00
2023-04-15T16:14:00.892Z,6.60
2023-04-15T16:15:32.834Z,7.50
2023-04-15T16:17:04.778Z,8.10
2023-04-15T16:18:36.425Z,7.70
2023-04-15T16:20:08.975Z,6.40
2023-04-15T16:21:40.921Z,7.90
2023-04-15T16:23:16.288Z,6.00
2023-04-15T16:24:48.440Z,8.00
2023-04-15T16:26:20.145Z,7.20
2023-04-15T16:28:01.378Z,7.00
2023-04-15T16:29:37.532Z,7.70
2023-04-15T16:31:11.997Z,7.70
2023-04-15T16:32:43.800Z,8.90
2023-04-15T16:34:16.154Z,9.10
2023-04-15T16:35:47.930Z,9.80
2023-04-15T16:37:21.512Z,7.70
2023-04-15T16:38:53.356Z,9.10
2023-04-15T16:40:26.116Z,8.10
2023-04-15T16:41:57.880Z,9.40
2023-04-15T16:43:29.974Z,8.80
2023-04-15T16:45:01.618Z,9.50
2023-04-15T16:46:33.403Z,9.30
2023-04-15T16:48:05.932Z,9.20
2023-04-15T16:49:38.455Z,9.50
2023-04-15T16:51:10.137Z,10.10
2023-04-15T16:52:42.036Z,8.60
2023-04-15T16:54:13.817Z,11.60
2023-04-15T16:55:45.747Z,9.00
2023-04-15T16:57:17.381Z,7.80
2023-04-15T16:58:50.021Z,9.50
2023-04-15T17:00:21.915Z,8.00
2023-04-15T17:01:56.741Z,9.60
2023-04-15T17:03:28.902Z,10.50
2023-04-15T17:05:00.869Z,9.90
2023-04-15T17:06:32.589Z,10.10
2023-04-15T17:08:05.430Z,9.70
2023-04-15T17:09:39.847Z,13.40
2023-04-15T17:11:12.410Z,11.60
2023-04-15T17:12:44.709Z,11.40
2023-04-15T17:14:16.407Z,11.80
2023-04-15T17:15:48.209Z,9.40
2023-04-15T17:17:20.948Z,9.30
2023-04-15T17:18:53.334Z,11.10
2023-04-15T17:20:26.422Z,12.20
2023-04-15T17:21:59.877Z,11.10
2023-04-15T17:23:32.010Z,10.50
2023-04-15T17:25:05.229Z,9.60
2023-04-15T17:26:37.199Z,11.10
2023-04-15T17:28:09.007Z,13.30
2023-04-15T17:29:41.270Z,11.60
2023-04-15T17:31:13.128Z,10.30
2023-04-15T17:32:44.869Z,14.00
2023-04-15T17:34:16.768Z,11.20
2023-04-15T17:35:48.584Z,11.20
2023-04-15T17:37:20.288Z,12.10
2023-04-15T17:38:52.042Z,14.60
2023-04-15T17:40:23.911Z,13.60
2023-04-15T17:41:57.573Z,11.90
2023-04-15T17:43:29.489Z,11.70
2023-04-15T17:45:01.360Z,9.80
2023-04-15T17:46:33.090Z,12.00
2023-04-15T17:48:05.385Z,10.80
2023-04-15T17:49:37.919Z,11.50
2023-04-15T17:51:09.701Z,10.50
2023-04-15T17:52:41.656Z,11.50
2023-04-15T17:54:13.424Z,12.10
2023-04-15T17:55:46.268Z,11.50
2023-04-15T17:57:18.070Z,11.10
2023-04-15T17:58:49.823Z,12.50
2023-04-15T18:00:21.525Z,13.80
2023-04-15T18:01:53.298Z,11.70
2023-04-15T18:03:26.361Z,13.30
2023-04-15T18:04:58.487Z,11.60
2023-04-15T18:06:30.931Z,10.20
2023-04-15T18:08:02.550Z,10.80
2023-04-15T18:09:35.127Z,9.60
2023-04-15T18:11:07.840Z,9.60
2023-04-15T18:12:39.530Z,8.20
2023-04-15T18:14:12.505Z,9.10
2023-04-15T18:15:46.283Z,8.00
2023-04-15T18:17:20.263Z,11.20
2023-04-15T18:18:52.354Z,9.30
2023-04-15T18:20:24.122Z,11.40
2023-04-15T18:21:55.831Z,9.60
2023-04-15T18:23:27.517Z,10.70
2023-04-15T18:25:03.938Z,11.30
2023-04-15T18:26:35.942Z,9.50
2023-04-15T18:28:07.627Z,9.70
2023-04-15T18:29:39.455Z,12.60
2023-04-15T18:31:11.188Z,8.70
2023-04-15T18:32:43.201Z,12.40
2023-04-15T18:34:14.873Z,11.30
2023-04-15T18:35:47.532Z,10.70
2023-04-15T18:37:20.492Z,11.40
2023-04-15T18:38:52.150Z,8.80
2023-04-15T18:40:24.024Z,11.80
2023-04-15T18:41:57.208Z,10.70
2023-04-15T18:43:29.071Z,11.50
2023-04-15T18:45:01.009Z,7.60
2023-04-15T18:46:33.912Z,8.70
2023-04-15T18:48:06.000Z,11.30
2023-04-15T18:49:37.809Z,9.60
2023-04-15T18:51:09.486Z,12.40
2023-04-15T18:52:41.354Z,11.10
2023-04-15T18:54:13.167Z,13.30
2023-04-15T18:55:45.076Z,12.70
2023-04-15T18:57:23.361Z,13.60
2023-04-15T18:59:26.107Z,11.00
2023-04-15T19:00:48.213Z,12.40
2023-04-15T19:02:20.060Z,13.40
2023-04-15T19:03:51.903Z,11.50
2023-04-15T19:05:23.621Z,13.70
2023-04-15T19:06:55.666Z,13.30
2023-04-15T19:08:27.640Z,11.60
2023-04-15T19:09:59.424Z,10.50
2023-04-15T19:11:31.326Z,12.40
2023-04-15T19:13:04.283Z,12.20
2023-04-15T19:14:36.433Z,13.20
2023-04-15T19:16:08.130Z,13.00
2023-04-15T19:17:40.010Z,10.50
2023-04-15T19:19:14.529Z,13.20
2023-04-15T19:20:46.536Z,13.10
2023-04-15T19:22:19.059Z,14.00
2023-04-15T19:23:50.833Z,14.40
2023-04-15T19:25:22.696Z,12.30
2023-04-15T19:26:54.489Z,13.00
2023-04-15T19:28:28.221Z,12.90
2023-04-15T19:30:00.146Z,11.00
2023-04-15T19:31:31.906Z,11.80
2023-04-15T19:33:03.832Z,13.60
2023-04-15T19:34:35.781Z,8.90
2023-04-15T19:36:08.107Z,9.40
2023-04-15T19:37:40.393Z,11.20
2023-04-15T19:39:12.458Z,9.50
2023-04-15T19:40:44.410Z,9.90
2023-04-15T19:42:17.120Z,8.80
2023-04-15T19:43:48.934Z,9.90
2023-04-15T19:45:20.863Z,12.00
2023-04-15T19:46:53.213Z,9.60
2023-04-15T19:48:25.817Z,13.20
2023-04-15T19:49:57.594Z,11.00
2023-04-15T19:51:29.799Z,11.10
2023-04-15T19:53:01.478Z,11.30
2023-04-15T19:54:33.380Z,12.80
2023-04-15T19:56:05.338Z,9.60
2023-04-15T19:57:37.042Z,11.70
2023-04-15T19:59:09.049Z,11.10
2023-04-15T20:00:40.935Z,13.30
2023-04-15T20:02:12.790Z,10.80
2023-04-15T20:03:44.839Z,11.90
2023-04-15T20:05:16.668Z,13.00
2023-04-15T20:06:49.666Z,9.60
2023-04-15T20:08:21.452Z,11.20
2023-04-15T20:09:53.269Z,11.00
2023-04-15T20:12:09.326Z,11.90
2023-04-15T20:13:21.002Z,10.70
2023-04-15T20:14:52.785Z,12.10
2023-04-15T20:16:25.226Z,11.40
2023-04-15T20:17:57.030Z,10.00
2023-04-15T20:19:28.832Z,13.00